< < Back
Terminal Aerodrome Forecast


Current Version              Previous Versions:   1  2  3  4  5  6  7  8  9  

Terminal Aerodrome Forecast

779
FTUS44 KMOB 211700
TAFPNS
TAF
KPNS 211733Z 2118/2218 08007KT P6SM SKC
     FM221200 09011KT P6SM BKN250=



Latest METAR

369
SAUS70 KWBC 221300 RRN
MTRPNS
METAR KPNS 221253Z COR 05006KT 10SM SCT050 09/04 A3028 RMK AO2 SLP255
T00940039


USA.gov is the U.S. government's official web portal to all federal, state and local government web resources and services.